createdAt,value
2022-10-09T00:01:40.362Z,76339.44
2022-10-09T00:04:09.548Z,76343.53
2022-10-09T00:06:36.969Z,76351.75
2022-10-09T00:09:04.069Z,76341.50
2022-10-09T00:11:32.240Z,76341.50
2022-10-09T00:13:59.346Z,76337.38
2022-10-09T00:16:26.582Z,76337.38
2022-10-09T00:18:55.031Z,76341.50
2022-10-09T00:21:26.191Z,76335.31
2022-10-09T00:23:53.877Z,76331.22
2022-10-09T00:26:21.331Z,76325.03
2022-10-09T00:28:48.459Z,76341.50
2022-10-09T00:31:16.203Z,76329.16
2022-10-09T00:33:43.494Z,76333.28
2022-10-09T00:36:14.666Z,76349.72
2022-10-09T00:38:41.783Z,76337.38
2022-10-09T00:41:08.962Z,76333.28
2022-10-09T00:43:37.814Z,76341.50
2022-10-09T00:46:04.934Z,76349.72
2022-10-09T00:48:33.784Z,76345.59
2022-10-09T00:51:00.959Z,76349.72
2022-10-09T00:53:28.594Z,76343.53
2022-10-09T00:55:55.780Z,76347.66
2022-10-09T00:58:23.305Z,76370.25
2022-10-09T01:00:52.087Z,76368.22
2022-10-09T01:03:19.149Z,76378.50
2022-10-09T01:05:55.416Z,76372.31
2022-10-09T01:08:23.784Z,76362.03
2022-10-09T01:10:56.469Z,76362.03
2022-10-09T01:13:32.763Z,76370.25
2022-10-09T01:16:24.127Z,76353.81
2022-10-09T01:18:53.404Z,76360.00
2022-10-09T01:21:25.369Z,76357.94
2022-10-09T01:24:02.233Z,76362.03
2022-10-09T01:26:35.048Z,76370.25
2022-10-09T01:29:05.153Z,76382.59
2022-10-09T01:31:32.681Z,76366.16
2022-10-09T01:33:59.860Z,76382.59
2022-10-09T01:36:27.340Z,76376.44
2022-10-09T01:38:54.400Z,76388.78
2022-10-09T01:41:21.593Z,76390.81
2022-10-09T01:43:48.875Z,76399.03
2022-10-09T01:46:29.293Z,76401.09
2022-10-09T01:49:15.244Z,76394.94
2022-10-09T01:52:01.559Z,76386.72
2022-10-09T01:54:52.456Z,76394.94
2022-10-09T01:57:22.495Z,76415.50
2022-10-09T01:59:49.946Z,76411.38
2022-10-09T02:02:17.136Z,76397.00
2022-10-09T02:04:44.536Z,76399.03
2022-10-09T02:07:11.575Z,76399.03
2022-10-09T02:09:40.028Z,76399.03
2022-10-09T02:12:08.093Z,76399.03
2022-10-09T02:14:35.814Z,76403.16
2022-10-09T02:17:15.981Z,76409.31
2022-10-09T02:19:43.721Z,76417.53
2022-10-09T02:22:11.183Z,76419.59
2022-10-09T02:24:38.646Z,76419.59
2022-10-09T02:27:06.022Z,76429.88
2022-10-09T02:29:33.354Z,76419.59
2022-10-09T02:32:00.526Z,76436.03
2022-10-09T02:34:27.607Z,76452.50
2022-10-09T02:36:54.626Z,76460.72
2022-10-09T02:39:21.640Z,76454.53
2022-10-09T02:41:48.751Z,76450.44
2022-10-09T02:44:15.952Z,76444.28
2022-10-09T02:46:43.049Z,76452.50
2022-10-09T02:49:10.290Z,76452.50
2022-10-09T02:51:37.344Z,76452.50
2022-10-09T02:54:04.825Z,76456.59
2022-10-09T02:56:35.535Z,76440.16
2022-10-09T02:59:05.085Z,76446.31
2022-10-09T03:01:32.192Z,76452.50
2022-10-09T03:03:59.276Z,76450.44
2022-10-09T03:06:27.397Z,76448.38
2022-10-09T03:08:54.607Z,76442.22
2022-10-09T03:11:22.457Z,76460.72
2022-10-09T03:13:49.516Z,76464.81
2022-10-09T03:16:19.633Z,76456.59
2022-10-09T03:18:49.985Z,76473.03
2022-10-09T03:21:18.069Z,76483.31
2022-10-09T03:23:45.300Z,76464.81
2022-10-09T03:26:15.527Z,76468.94
2022-10-09T03:28:43.708Z,76468.94
2022-10-09T03:31:22.393Z,76468.94
2022-10-09T03:33:58.128Z,76464.81
2022-10-09T03:36:25.214Z,76456.59
2022-10-09T03:38:52.287Z,76456.59
2022-10-09T03:41:19.342Z,76464.81
2022-10-09T03:43:46.754Z,76462.78
2022-10-09T03:46:13.866Z,76464.81
2022-10-09T03:48:41.592Z,76464.81
2022-10-09T03:51:08.685Z,76464.81
2022-10-09T03:53:35.788Z,76460.72
2022-10-09T03:56:02.906Z,76464.81
2022-10-09T03:58:29.971Z,76481.28
2022-10-09T04:00:57.208Z,76487.44
2022-10-09T04:03:27.602Z,76477.16
2022-10-09T04:05:54.638Z,76477.16
2022-10-09T04:08:22.991Z,76473.03
2022-10-09T04:10:56.259Z,76464.81
2022-10-09T04:13:23.907Z,76464.81
2022-10-09T04:15:53.149Z,76477.16
2022-10-09T04:18:20.433Z,76456.59
2022-10-09T04:20:51.251Z,76456.59
2022-10-09T04:23:19.250Z,76456.59
2022-10-09T04:25:46.608Z,76454.53
2022-10-09T04:28:13.770Z,76448.38
2022-10-09T04:30:41.152Z,76452.50
2022-10-09T04:33:12.688Z,76452.50
2022-10-09T04:35:43.788Z,76440.16
2022-10-09T04:38:12.407Z,76431.94
2022-10-09T04:40:40.572Z,76440.16
2022-10-09T04:43:07.599Z,76419.59
2022-10-09T04:45:39.206Z,76419.59
2022-10-09T04:48:06.411Z,76411.38
2022-10-09T04:50:33.438Z,76401.09
2022-10-09T04:53:00.490Z,76403.16
2022-10-09T04:55:27.532Z,76386.72
2022-10-09T04:57:55.874Z,76366.16
2022-10-09T05:00:22.912Z,76378.50
2022-10-09T05:02:50.237Z,76370.25
2022-10-09T05:05:18.036Z,76347.66
2022-10-09T05:07:45.393Z,76339.44
2022-10-09T05:10:12.462Z,76341.50
2022-10-09T05:12:39.490Z,76320.94
2022-10-09T05:15:07.251Z,76323.00
2022-10-09T05:17:36.483Z,76316.81
2022-10-09T05:20:03.940Z,76300.38
2022-10-09T05:22:31.259Z,76312.72
2022-10-09T05:24:58.615Z,76318.88
2022-10-09T05:27:25.643Z,76286.00
2022-10-09T05:29:52.849Z,76267.50
2022-10-09T05:32:20.063Z,76263.38
2022-10-09T05:34:47.104Z,76263.38
2022-10-09T05:37:14.140Z,76263.38
2022-10-09T05:39:41.230Z,76251.03
2022-10-09T05:42:08.281Z,76267.50
2022-10-09T05:44:37.102Z,76234.59
2022-10-09T05:47:04.246Z,76230.50
2022-10-09T05:49:31.290Z,76212.00
2022-10-09T05:51:58.305Z,76197.59
2022-10-09T05:54:25.557Z,76187.31
2022-10-09T05:56:52.647Z,76160.59
2022-10-09T05:59:19.997Z,76156.50
2022-10-09T06:01:50.754Z,76144.16
2022-10-09T06:04:22.445Z,76123.63
2022-10-09T06:06:50.269Z,76109.22
2022-10-09T06:09:17.902Z,76125.66
2022-10-09T06:11:54.008Z,76103.06
2022-10-09T06:14:22.641Z,76057.84
2022-10-09T06:16:50.468Z,76061.94
2022-10-09T06:19:17.917Z,76043.44
2022-10-09T06:21:45.523Z,76033.19
2022-10-09T06:24:27.891Z,76008.50
2022-10-09T06:26:56.585Z,76010.56
2022-10-09T06:29:23.663Z,75990.00
2022-10-09T06:31:50.730Z,75969.47
2022-10-09T06:34:17.947Z,75975.63
2022-10-09T06:36:45.017Z,75955.06
2022-10-09T06:39:12.113Z,75916.03
2022-10-09T06:41:39.953Z,75885.19
2022-10-09T06:44:07.776Z,75887.25
2022-10-09T06:46:37.301Z,75889.31
2022-10-09T06:49:04.392Z,75872.84
2022-10-09T06:51:32.004Z,75860.53
2022-10-09T06:53:59.573Z,75839.97
2022-10-09T06:56:27.576Z,75811.22
2022-10-09T06:58:54.934Z,75802.97
2022-10-09T07:01:32.587Z,75794.75
2022-10-09T07:04:00.964Z,75766.00
2022-10-09T07:06:32.728Z,75667.34
2022-10-09T07:09:04.222Z,75576.91
2022-10-09T07:11:33.255Z,75264.56
2022-10-09T07:14:01.289Z,74981.00
2022-10-09T07:16:32.915Z,74734.44
2022-10-09T07:19:03.813Z,74730.34
2022-10-09T07:21:31.086Z,74565.97
2022-10-09T07:23:59.678Z,74512.56
2022-10-09T07:26:26.948Z,74381.06
2022-10-09T07:28:54.225Z,74251.66
2022-10-09T07:31:21.498Z,74272.19
2022-10-09T07:33:50.117Z,74278.34
2022-10-09T07:36:17.174Z,74479.69
2022-10-09T07:38:44.709Z,74648.16
2022-10-09T07:41:12.181Z,74763.22
2022-10-09T07:43:39.536Z,74676.91
2022-10-09T07:46:07.331Z,74742.66
2022-10-09T07:48:34.752Z,74683.06
2022-10-09T07:51:31.376Z,74722.13
2022-10-09T07:54:00.001Z,74385.19
2022-10-09T07:56:29.144Z,74235.22
2022-10-09T07:58:57.289Z,74075.00
2022-10-09T08:01:24.485Z,74116.06
2022-10-09T08:03:51.911Z,74124.28
2022-10-09T08:06:19.065Z,74204.41
2022-10-09T08:08:53.263Z,74356.44
2022-10-09T08:11:20.882Z,74450.94
2022-10-09T08:13:48.324Z,74298.91
2022-10-09T08:16:15.633Z,74142.78
2022-10-09T08:18:43.873Z,74344.09
2022-10-09T08:21:12.182Z,74393.41
2022-10-09T08:23:39.661Z,74563.91
2022-10-09T08:26:16.909Z,74471.47
2022-10-09T08:28:45.235Z,74520.78
2022-10-09T08:31:13.023Z,74333.81
2022-10-09T08:33:40.170Z,74231.09
2022-10-09T08:36:07.895Z,74179.75
2022-10-09T08:38:47.217Z,74192.09
2022-10-09T08:41:14.766Z,74374.91
2022-10-09T08:43:45.399Z,74315.34
2022-10-09T08:46:20.762Z,74245.50
2022-10-09T08:48:48.600Z,74109.91
2022-10-09T08:51:18.771Z,74064.72
2022-10-09T08:53:45.803Z,74035.97
2022-10-09T08:56:13.542Z,74114.03
2022-10-09T08:58:41.591Z,74167.44
2022-10-09T09:01:26.359Z,74192.09
2022-10-09T09:03:56.753Z,73988.72
2022-10-09T09:06:36.772Z,73925.03
2022-10-09T09:09:08.115Z,73929.16
2022-10-09T09:11:56.943Z,73875.75
2022-10-09T09:14:45.934Z,73785.38
2022-10-09T09:17:25.345Z,73723.75
2022-10-09T09:19:59.167Z,73752.50
2022-10-09T09:22:27.073Z,73684.72
2022-10-09T09:24:57.190Z,73514.25
2022-10-09T09:27:28.002Z,73487.56
2022-10-09T09:30:04.493Z,73510.13
2022-10-09T09:32:32.845Z,73731.97
2022-10-09T09:35:03.719Z,73579.97
2022-10-09T09:37:31.073Z,73703.22
2022-10-09T09:42:46.521Z,73567.66
2022-10-09T09:45:19.606Z,73370.47
2022-10-09T09:47:48.981Z,73536.84
2022-10-09T09:50:42.401Z,73662.13
2022-10-09T09:53:07.805Z,73920.94
2022-10-09T09:55:35.006Z,74093.47
2022-10-09T09:58:06.263Z,74315.34
2022-10-09T10:00:33.520Z,74430.38
2022-10-09T10:03:13.885Z,74553.66
2022-10-09T10:05:41.838Z,74613.22
2022-10-09T10:08:16.157Z,74685.13
2022-10-09T10:10:46.633Z,74791.97
2022-10-09T10:13:33.988Z,74868.00
2022-10-09T10:16:01.155Z,74923.47
2022-10-09T10:18:29.199Z,74944.00
2022-10-09T10:20:56.791Z,75009.75
2022-10-09T10:23:35.928Z,74999.50
2022-10-09T10:26:19.381Z,75022.09
2022-10-09T10:29:03.720Z,75001.53
2022-10-09T10:31:31.585Z,75034.41
2022-10-09T10:33:58.652Z,75038.53
2022-10-09T10:36:25.673Z,75036.47
2022-10-09T10:38:53.962Z,75046.75
2022-10-09T10:41:21.333Z,75038.53
2022-10-09T10:43:48.980Z,75034.41
2022-10-09T10:46:22.770Z,75022.09
2022-10-09T10:48:51.666Z,75024.16
2022-10-09T10:51:35.180Z,75009.75
2022-10-09T10:54:22.033Z,74981.00
2022-10-09T10:56:51.509Z,74987.16
2022-10-09T10:59:24.691Z,74981.00
2022-10-09T11:01:52.317Z,74987.16
2022-10-09T11:04:29.361Z,75030.31
2022-10-09T11:07:05.358Z,74993.31
2022-10-09T11:09:38.197Z,75005.66
2022-10-09T11:12:06.279Z,75015.94
2022-10-09T11:14:34.797Z,75022.09
2022-10-09T11:17:09.759Z,75009.75
2022-10-09T11:19:45.133Z,75005.66
2022-10-09T11:22:13.643Z,75022.09
2022-10-09T11:24:59.740Z,75026.19
2022-10-09T11:27:44.487Z,75026.19
2022-10-09T11:30:12.629Z,75026.19
2022-10-09T11:32:47.998Z,75020.03
2022-10-09T11:35:17.067Z,75013.88
2022-10-09T11:37:44.167Z,75063.19
2022-10-09T11:40:15.071Z,75036.47
2022-10-09T11:42:42.358Z,75024.16
2022-10-09T11:45:13.138Z,75028.25
2022-10-09T11:47:44.142Z,75038.53
2022-10-09T11:50:17.397Z,75069.34
2022-10-09T11:52:47.557Z,75091.97
2022-10-09T11:55:17.481Z,75108.41
2022-10-09T11:57:44.677Z,75131.00
2022-10-09T12:00:11.948Z,75120.72
2022-10-09T12:02:39.250Z,75128.94
2022-10-09T12:05:17.127Z,75114.56
2022-10-09T12:07:44.165Z,75155.66
2022-10-09T12:10:30.525Z,75174.16
2022-10-09T12:13:01.247Z,75190.59
2022-10-09T12:15:39.625Z,75198.81
2022-10-09T12:18:22.012Z,75194.69
2022-10-09T12:20:49.261Z,75194.69
2022-10-09T12:23:33.124Z,75204.97
2022-10-09T12:26:01.625Z,75190.59
2022-10-09T12:28:58.460Z,75180.31
2022-10-09T12:31:27.229Z,75174.16
2022-10-09T12:34:01.310Z,75157.72
2022-10-09T12:36:28.972Z,75165.94
2022-10-09T12:38:56.332Z,75161.81
2022-10-09T12:41:25.157Z,75161.81
2022-10-09T12:43:52.672Z,75159.75
2022-10-09T12:46:32.590Z,75161.81
2022-10-09T12:48:59.958Z,75153.59
2022-10-09T12:51:28.393Z,75163.88
2022-10-09T12:53:56.471Z,75157.72
2022-10-09T12:56:23.546Z,75178.25
2022-10-09T12:58:50.579Z,75165.94
2022-10-09T13:01:17.884Z,75161.81
2022-10-09T13:03:54.706Z,75161.81
2022-10-09T13:06:29.358Z,75161.81
2022-10-09T13:08:57.254Z,75180.31
2022-10-09T13:11:33.649Z,75170.03
2022-10-09T13:14:05.629Z,75190.59
2022-10-09T13:16:42.515Z,75174.16
2022-10-09T13:19:39.096Z,75211.13
2022-10-09T13:22:19.719Z,75202.91
2022-10-09T13:24:47.311Z,75198.81
2022-10-09T13:27:14.729Z,75186.47
2022-10-09T13:29:42.783Z,75207.03
2022-10-09T13:32:11.914Z,75186.47
2022-10-09T13:34:39.010Z,75207.03
2022-10-09T13:37:06.624Z,75202.91
2022-10-09T13:39:33.680Z,75207.03
2022-10-09T13:42:00.963Z,75211.13
2022-10-09T13:44:28.136Z,75200.88
2022-10-09T13:46:55.205Z,75202.91
2022-10-09T13:49:22.428Z,75190.59
2022-10-09T13:51:49.485Z,75202.91
2022-10-09T13:54:21.997Z,75219.34
2022-10-09T13:56:49.256Z,75213.19
2022-10-09T13:59:16.895Z,75215.25
2022-10-09T14:01:44.263Z,75225.53
2022-10-09T14:04:11.380Z,75246.06
2022-10-09T14:06:40.114Z,75239.91
2022-10-09T14:09:08.313Z,75235.78
2022-10-09T14:11:36.574Z,75239.91
2022-10-09T14:14:13.485Z,75252.22
2022-10-09T14:16:40.630Z,75262.50
2022-10-09T14:19:09.281Z,75272.78
2022-10-09T14:21:36.391Z,75264.56
2022-10-09T14:24:03.446Z,75272.78
2022-10-09T14:26:30.701Z,75266.63
2022-10-09T14:28:58.875Z,75272.78
2022-10-09T14:31:25.917Z,75258.41
2022-10-09T14:33:54.914Z,75256.34
2022-10-09T14:36:21.954Z,75272.78
2022-10-09T14:38:49.045Z,75268.66
2022-10-09T14:41:17.954Z,75264.56
2022-10-09T14:43:45.804Z,75268.66
2022-10-09T14:46:16.809Z,75289.22
2022-10-09T14:48:45.186Z,75320.03
2022-10-09T14:51:13.256Z,75346.75
2022-10-09T14:53:40.832Z,75326.22
2022-10-09T14:56:09.197Z,75326.22
2022-10-09T14:58:36.385Z,75328.25
2022-10-09T15:01:03.730Z,75342.66
2022-10-09T15:03:31.149Z,75338.53
2022-10-09T15:05:59.012Z,75350.88
2022-10-09T15:08:26.315Z,75367.31
2022-10-09T15:10:53.405Z,75381.69
2022-10-09T15:13:20.879Z,75375.53
2022-10-09T15:15:50.325Z,75377.59
2022-10-09T15:18:17.347Z,75371.41
2022-10-09T15:20:45.969Z,75369.38
2022-10-09T15:23:12.980Z,75379.63
2022-10-09T15:25:40.238Z,75408.41
2022-10-09T15:28:07.405Z,75404.28
2022-10-09T15:30:34.458Z,75400.19
2022-10-09T15:33:01.596Z,75412.53
2022-10-09T15:35:28.665Z,75422.78
2022-10-09T15:37:55.990Z,75420.72
2022-10-09T15:40:23.117Z,75431.00
2022-10-09T15:42:50.737Z,75424.84
2022-10-09T15:45:18.038Z,75428.97
2022-10-09T15:47:52.723Z,75447.44
2022-10-09T15:50:19.861Z,75437.19
2022-10-09T15:52:47.125Z,75424.84
2022-10-09T15:55:14.762Z,75420.72
2022-10-09T15:57:41.793Z,75418.69
2022-10-09T16:00:09.913Z,75416.63
2022-10-09T16:02:37.114Z,75424.84
2022-10-09T16:05:05.249Z,75426.91
2022-10-09T16:07:32.609Z,75428.97
2022-10-09T16:10:00.374Z,75428.97
2022-10-09T16:12:27.480Z,75420.72
2022-10-09T16:14:54.954Z,75428.97
2022-10-09T16:17:24.498Z,75455.66
2022-10-09T16:19:51.933Z,75445.41
2022-10-09T16:22:19.153Z,75445.41
2022-10-09T16:24:46.465Z,75453.63
2022-10-09T16:27:13.501Z,75453.63
2022-10-09T16:29:41.249Z,75441.28
2022-10-09T16:32:08.263Z,75449.50
2022-10-09T16:34:35.933Z,75453.63
2022-10-09T16:37:03.073Z,75457.72
2022-10-09T16:39:30.375Z,75447.44
2022-10-09T16:42:00.493Z,75439.22
2022-10-09T16:44:27.714Z,75443.34
2022-10-09T16:46:55.378Z,75441.28
2022-10-09T16:49:24.964Z,75441.28
2022-10-09T16:51:52.269Z,75439.22
2022-10-09T16:54:19.411Z,75437.19
2022-10-09T16:56:46.526Z,75453.63
2022-10-09T16:59:15.243Z,75445.41
2022-10-09T17:01:45.758Z,75457.72
2022-10-09T17:04:13.200Z,75455.66
2022-10-09T17:06:41.469Z,75453.63
2022-10-09T17:09:13.266Z,75453.63
2022-10-09T17:11:41.043Z,75453.63
2022-10-09T17:14:08.650Z,75453.63
2022-10-09T17:16:37.172Z,75455.66
2022-10-09T17:19:05.199Z,75461.84
2022-10-09T17:21:34.538Z,75461.84
2022-10-09T17:24:06.078Z,75470.06
2022-10-09T17:26:33.843Z,75474.16
2022-10-09T17:29:01.154Z,75480.34
2022-10-09T17:31:30.310Z,75472.13
2022-10-09T17:33:58.209Z,75482.38
2022-10-09T17:36:27.062Z,75502.94
2022-10-09T17:38:54.257Z,75488.56
2022-10-09T17:41:22.811Z,75494.72
2022-10-09T17:43:51.297Z,75494.72
2022-10-09T17:46:19.330Z,75490.59
2022-10-09T17:48:52.612Z,75500.88
2022-10-09T17:51:21.103Z,75502.94
2022-10-09T17:53:48.255Z,75523.50
2022-10-09T17:56:15.514Z,75519.38
2022-10-09T17:58:44.498Z,75513.22
2022-10-09T18:01:11.700Z,75521.44
2022-10-09T18:03:38.832Z,75515.25
2022-10-09T18:06:06.730Z,75519.38
2022-10-09T18:08:33.874Z,75521.44
2022-10-09T18:11:01.647Z,75527.59
2022-10-09T18:13:28.852Z,75533.75
2022-10-09T18:15:55.909Z,75531.72
2022-10-09T18:18:23.575Z,75537.88
2022-10-09T18:20:50.622Z,75548.16
2022-10-09T18:23:22.387Z,75556.38
2022-10-09T18:25:49.789Z,75576.91
2022-10-09T18:28:16.912Z,75589.25
2022-10-09T18:30:46.154Z,75593.34
2022-10-09T18:33:13.247Z,75609.81
2022-10-09T18:35:40.715Z,75624.19
2022-10-09T18:38:08.036Z,75634.47
2022-10-09T18:40:45.562Z,75648.84
2022-10-09T18:43:13.162Z,75663.22
2022-10-09T18:45:43.192Z,75671.44
2022-10-09T18:48:10.360Z,75683.78
2022-10-09T18:50:37.517Z,75696.13
2022-10-09T18:53:04.724Z,75700.22
2022-10-09T18:55:31.916Z,75706.38
2022-10-09T18:57:59.685Z,75729.00
2022-10-09T19:00:26.804Z,75733.09
2022-10-09T19:02:53.852Z,75733.09
2022-10-09T19:05:22.165Z,75745.44
2022-10-09T19:07:49.443Z,75743.38
2022-10-09T19:10:17.141Z,75755.72
2022-10-09T19:12:46.607Z,75770.09
2022-10-09T19:15:13.636Z,75766.00
2022-10-09T19:17:42.127Z,75772.16
2022-10-09T19:20:10.576Z,75774.22
2022-10-09T19:22:37.619Z,75782.44
2022-10-09T19:25:05.328Z,75782.44
2022-10-09T19:27:32.633Z,75794.75
2022-10-09T19:29:59.730Z,75811.22
2022-10-09T19:32:26.946Z,75811.22
2022-10-09T19:34:54.043Z,75819.44
2022-10-09T19:37:22.828Z,75815.31
2022-10-09T19:39:52.038Z,75827.66
2022-10-09T19:42:21.276Z,75844.09
2022-10-09T19:44:48.385Z,75844.09
2022-10-09T19:47:15.455Z,75833.81
2022-10-09T19:49:42.690Z,75835.88
2022-10-09T19:52:09.817Z,75827.66
2022-10-09T19:54:37.844Z,75829.69
2022-10-09T19:57:05.066Z,75819.44
2022-10-09T19:59:32.122Z,75817.38
2022-10-09T20:01:59.158Z,75819.44
2022-10-09T20:04:26.164Z,75819.44
2022-10-09T20:06:53.230Z,75813.25
2022-10-09T20:09:21.045Z,75815.31
2022-10-09T20:11:48.104Z,75809.16
2022-10-09T20:14:16.469Z,75819.44
2022-10-09T20:16:45.777Z,75815.31
2022-10-09T20:19:12.948Z,75815.31
2022-10-09T20:21:40.684Z,75817.38
2022-10-09T20:24:08.332Z,75819.44
2022-10-09T20:26:37.696Z,75823.53
2022-10-09T20:29:07.400Z,75831.75
2022-10-09T20:31:34.506Z,75852.31
2022-10-09T20:34:01.627Z,75844.09
2022-10-09T20:36:28.836Z,75835.88
2022-10-09T20:38:56.507Z,75837.91
2022-10-09T20:41:23.890Z,75827.66
2022-10-09T20:43:52.001Z,75823.53
2022-10-09T20:46:21.345Z,75846.13
2022-10-09T20:48:48.608Z,75837.91
2022-10-09T20:51:15.866Z,75839.97
2022-10-09T20:53:42.961Z,75827.66
2022-10-09T20:56:11.757Z,75815.31
2022-10-09T20:58:39.685Z,75815.31
2022-10-09T21:01:07.186Z,75811.22
2022-10-09T21:03:34.807Z,75811.22
2022-10-09T21:06:04.309Z,75815.31
2022-10-09T21:08:31.371Z,75813.25
2022-10-09T21:10:58.654Z,75827.66
2022-10-09T21:13:25.707Z,75833.81
2022-10-09T21:15:55.835Z,75846.13
2022-10-09T21:18:22.878Z,75852.31
2022-10-09T21:20:50.793Z,75860.53
2022-10-09T21:23:18.281Z,75852.31
2022-10-09T21:25:49.354Z,75856.41
2022-10-09T21:28:17.360Z,75860.53
2022-10-09T21:30:44.510Z,75856.41
2022-10-09T21:33:11.783Z,75856.41
2022-10-09T21:35:40.495Z,75856.41
2022-10-09T21:38:09.753Z,75864.63
2022-10-09T21:40:36.904Z,75866.69
2022-10-09T21:43:04.071Z,75864.63
2022-10-09T21:45:31.101Z,75872.84
2022-10-09T21:47:59.298Z,75876.97
2022-10-09T21:50:26.816Z,75881.09
2022-10-09T21:52:54.200Z,75889.31
2022-10-09T21:55:21.247Z,75899.56
2022-10-09T21:57:48.513Z,75897.53
2022-10-09T22:00:16.075Z,75907.81
2022-10-09T22:02:43.192Z,75909.84
2022-10-09T22:05:10.212Z,75909.84
2022-10-09T22:07:38.271Z,75922.19
2022-10-09T22:10:05.616Z,75918.06
2022-10-09T22:12:33.363Z,75922.19
2022-10-09T22:15:04.015Z,75926.28
2022-10-09T22:17:34.597Z,75942.75
2022-10-09T22:20:01.694Z,75959.19
2022-10-09T22:22:29.026Z,75950.97
2022-10-09T22:24:56.089Z,75959.19
2022-10-09T22:27:23.981Z,75959.19
2022-10-09T22:29:51.074Z,75963.28
2022-10-09T22:32:18.094Z,75955.06
2022-10-09T22:34:45.166Z,75957.13
2022-10-09T22:37:12.434Z,75957.13
2022-10-09T22:39:40.304Z,75963.28
2022-10-09T22:42:07.429Z,75977.69
2022-10-09T22:44:34.479Z,75987.97
2022-10-09T22:47:01.548Z,75987.97
2022-10-09T22:49:28.594Z,75992.06
2022-10-09T22:51:55.701Z,76010.56
2022-10-09T22:54:23.165Z,76004.41
2022-10-09T22:56:50.184Z,76024.94
2022-10-09T22:59:18.107Z,76012.63
2022-10-09T23:01:48.293Z,76022.91
2022-10-09T23:04:15.977Z,76016.72
2022-10-09T23:06:43.241Z,76022.91
2022-10-09T23:09:13.563Z,76031.13
2022-10-09T23:11:40.744Z,76031.13
2022-10-09T23:14:08.114Z,76029.06
2022-10-09T23:16:37.165Z,76029.06
2022-10-09T23:19:07.067Z,76033.19
2022-10-09T23:21:35.455Z,76027.00
2022-10-09T23:24:02.479Z,76020.84
2022-10-09T23:26:30.637Z,76016.72
2022-10-09T23:28:58.734Z,76020.84
2022-10-09T23:31:28.311Z,76008.50
2022-10-09T23:33:55.904Z,76008.50
2022-10-09T23:36:24.345Z,76012.63
2022-10-09T23:38:51.391Z,76016.72
2022-10-09T23:41:19.229Z,76008.50
2022-10-09T23:43:46.337Z,75996.19
2022-10-09T23:46:17.302Z,76008.50
2022-10-09T23:48:44.504Z,76008.50
2022-10-09T23:51:11.561Z,76012.63
2022-10-09T23:53:39.036Z,76012.63
2022-10-09T23:56:32.392Z,76020.84
2022-10-09T23:58:59.745Z,76004.41
